Time;durP1;ratioP1;P1;durP2;ratioP2;P2;SDS_P1;SDS_P2;PMS_P1;PMS_P2;Temp;Humidity;BMP_temperature;BMP_pressure;BME280_temperature;BME280_humidity;BME280_pressure;Samples;Min_cycle;Max_cycle;Signal;HPM_P1;HPM_P2
2021/07/26 00:01:41;;;;;;;;;;;20.20;99.90;;;;;;5089225;28;20372;-89
2021/07/26 00:04:06;;;;;;;;;;;20.10;99.90;;;;;;5087901;28;19915;-89
2021/07/26 00:06:32;;;;;;;;;;;20.10;99.90;;;;;;5088937;28;19916;-89
2021/07/26 00:08:57;;;;;;;;;;;20.10;99.90;;;;;;5088226;28;19908;-89
2021/07/26 00:11:23;;;;;;;;;;;20.10;99.90;;;;;;5087705;28;20246;-89
2021/07/26 00:13:48;;;;;;;;;;;20.10;99.90;;;;;;5088829;28;20312;-90
2021/07/26 00:16:14;;;;;;;;;;;20.10;99.90;;;;;;5079301;28;20364;-89
2021/07/26 00:18:39;;;;;;;;;;;20.10;99.90;;;;;;5073940;28;19920;-89
2021/07/26 00:21:05;;;;;;;;;;;20.10;99.90;;;;;;5073487;28;19912;-90
2021/07/26 00:23:30;;;;;;;;;;;20.10;99.90;;;;;;5075230;28;19918;-89
2021/07/26 00:25:56;;;;;;;;;;;20.10;99.90;;;;;;5075229;28;20319;-89
2021/07/26 00:28:22;;;;;;;;;;;20.10;99.90;;;;;;5073675;28;20288;-89
2021/07/26 00:30:47;;;;;;;;;;;20.10;99.90;;;;;;5073515;28;20361;-90
2021/07/26 00:33:44;;;;;;;;;;;20.00;99.90;;;;;;5073843;28;19934;-89
2021/07/26 00:36:09;;;;;;;;;;;20.00;99.90;;;;;;5073732;28;20399;-89
2021/07/26 00:38:35;;;;;;;;;;;20.00;99.90;;;;;;5074847;28;20015;-89
2021/07/26 00:41:00;;;;;;;;;;;20.00;99.90;;;;;;5074285;28;19909;-89
2021/07/26 00:43:26;;;;;;;;;;;20.00;99.90;;;;;;5073598;28;19951;-89
2021/07/26 00:45:51;;;;;;;;;;;20.00;99.90;;;;;;5073568;28;20003;-89
2021/07/26 00:48:16;;;;;;;;;;;19.90;99.90;;;;;;5073532;28;19914;-89
2021/07/26 00:50:42;;;;;;;;;;;19.90;99.90;;;;;;5072850;28;19912;-89
2021/07/26 00:53:08;;;;;;;;;;;19.90;99.90;;;;;;5073593;28;19908;-90
2021/07/26 00:55:33;;;;;;;;;;;19.90;99.90;;;;;;5073376;28;20319;-89
2021/07/26 00:57:59;;;;;;;;;;;19.90;99.90;;;;;;5073368;28;20006;-89
2021/07/26 01:00:24;;;;;;;;;;;19.90;99.90;;;;;;5073970;28;19908;-89
2021/07/26 01:02:50;;;;;;;;;;;19.90;99.90;;;;;;5073057;28;20292;-89
2021/07/26 01:05:15;;;;;;;;;;;19.90;99.90;;;;;;5074373;28;19931;-89
2021/07/26 01:07:41;;;;;;;;;;;19.90;99.90;;;;;;5073240;28;20395;-89
2021/07/26 01:10:06;;;;;;;;;;;19.90;99.90;;;;;;5072921;28;19915;-89
2021/07/26 01:12:32;;;;;;;;;;;19.90;99.90;;;;;;5074333;28;20447;-89
2021/07/26 01:14:58;;;;;;;;;;;19.90;99.90;;;;;;5073556;28;19920;-89
2021/07/26 01:17:42;;;;;;;;;;;19.90;99.90;;;;;;5073089;28;19938;-89
2021/07/26 01:20:08;;;;;;;;;;;19.80;99.90;;;;;;5072393;28;19915;-89
2021/07/26 01:22:33;;;;;;;;;;;19.80;99.90;;;;;;5072766;28;19909;-89
2021/07/26 01:25:01;;;;;;;;;;;19.80;99.90;;;;;;5073924;28;19919;-89
2021/07/26 01:27:26;;;;;;;;;;;19.80;99.90;;;;;;5071582;28;19909;-89
2021/07/26 01:29:52;;;;;;;;;;;19.80;99.90;;;;;;5072130;28;19909;-89
2021/07/26 01:32:17;;;;;;;;;;;19.80;99.90;;;;;;5073650;28;20313;-90
2021/07/26 01:34:42;;;;;;;;;;;19.80;99.90;;;;;;5072461;28;19913;-89
2021/07/26 01:37:08;;;;;;;;;;;19.70;99.90;;;;;;5072349;28;20319;-89
2021/07/26 01:39:33;;;;;;;;;;;19.70;99.90;;;;;;5073067;28;19934;-90
2021/07/26 01:41:59;;;;;;;;;;;19.70;99.90;;;;;;5072322;28;19912;-90
2021/07/26 01:44:24;;;;;;;;;;;19.70;99.90;;;;;;5072283;28;19962;-89
2021/07/26 01:46:56;;;;;;;;;;;19.70;99.90;;;;;;5072112;28;19916;-89
2021/07/26 01:49:40;;;;;;;;;;;19.70;99.90;;;;;;5071794;28;19916;-90
2021/07/26 01:52:06;;;;;;;;;;;19.70;99.90;;;;;;5073349;28;19917;-90
2021/07/26 01:54:32;;;;;;;;;;;19.70;99.90;;;;;;5072152;28;19925;-89
2021/07/26 01:56:57;;;;;;;;;;;19.70;99.90;;;;;;5073599;28;19913;-89
2021/07/26 01:59:23;;;;;;;;;;;19.70;99.90;;;;;;5071645;28;20291;-90
2021/07/26 02:01:48;;;;;;;;;;;19.70;99.90;;;;;;5071928;28;19936;-90
2021/07/26 02:04:15;;;;;;;;;;;19.60;99.90;;;;;;5071902;28;19917;-89
2021/07/26 02:06:40;;;;;;;;;;;19.60;99.90;;;;;;5071955;28;20347;-89
2021/07/26 02:09:05;;;;;;;;;;;19.60;99.90;;;;;;5072495;28;19955;-89
2021/07/26 02:11:31;;;;;;;;;;;19.50;99.90;;;;;;5071595;28;20008;-90
2021/07/26 02:13:56;;;;;;;;;;;19.50;99.90;;;;;;5071905;28;19935;-90
2021/07/26 02:16:22;;;;;;;;;;;19.50;99.90;;;;;;5073019;28;19908;-89
2021/07/26 02:18:47;;;;;;;;;;;19.50;99.90;;;;;;5090194;28;19916;-90
2021/07/26 02:21:13;;;;;;;;;;;19.40;99.90;;;;;;5074574;28;20286;-90
2021/07/26 02:23:38;;;;;;;;;;;19.40;99.90;;;;;;5074928;28;20356;-90
2021/07/26 02:26:04;;;;;;;;;;;19.30;99.90;;;;;;5074861;28;20010;-90
2021/07/26 02:28:30;;;;;;;;;;;19.30;99.90;;;;;;5074445;28;19951;-90
2021/07/26 02:30:55;;;;;;;;;;;19.30;99.90;;;;;;5072955;28;19961;-89
2021/07/26 02:33:21;;;;;;;;;;;19.30;99.90;;;;;;5074144;28;20358;-89
2021/07/26 02:35:47;;;;;;;;;;;19.30;99.90;;;;;;5092954;28;19965;-90
2021/07/26 02:38:13;;;;;;;;;;;19.30;99.90;;;;;;5074591;28;20002;-90
2021/07/26 02:40:39;;;;;;;;;;;19.30;99.90;;;;;;5092259;28;19995;-90
2021/07/26 02:43:04;;;;;;;;;;;19.20;99.90;;;;;;5074509;28;20417;-89
2021/07/26 02:45:30;;;;;;;;;;;19.30;99.90;;;;;;5074638;28;19912;-89
2021/07/26 02:47:55;;;;;;;;;;;19.20;99.90;;;;;;5092720;28;19961;-90
2021/07/26 02:50:21;;;;;;;;;;;19.20;99.90;;;;;;5074123;28;19919;-90
2021/07/26 02:52:46;;;;;;;;;;;19.20;99.90;;;;;;5074576;28;20373;-90
2021/07/26 02:55:12;;;;;;;;;;;19.20;99.90;;;;;;5092588;28;19911;-90
2021/07/26 02:57:37;;;;;;;;;;;19.20;99.90;;;;;;5092337;28;19909;-90
2021/07/26 03:00:04;;;;;;;;;;;19.20;99.90;;;;;;5073991;28;20086;-90
2021/07/26 03:02:29;;;;;;;;;;;19.20;99.90;;;;;;5074740;28;20310;-89
2021/07/26 03:04:58;;;;;;;;;;;19.20;99.90;;;;;;5074492;28;19908;-89
2021/07/26 03:07:24;;;;;;;;;;;19.20;99.90;;;;;;5074433;28;19908;-90
2021/07/26 03:09:49;;;;;;;;;;;19.20;99.90;;;;;;5073919;28;20364;-89
2021/07/26 03:12:15;;;;;;;;;;;19.20;99.90;;;;;;5074371;28;19915;-90
2021/07/26 03:14:40;;;;;;;;;;;19.20;99.90;;;;;;5074435;28;19966;-90
2021/07/26 03:17:06;;;;;;;;;;;19.10;99.90;;;;;;5092252;28;20011;-89
2021/07/26 03:19:31;;;;;;;;;;;19.10;99.90;;;;;;5073886;28;19912;-89
2021/07/26 03:22:15;;;;;;;;;;;19.10;99.90;;;;;;5074226;28;19915;-89
2021/07/26 03:24:41;;;;;;;;;;;19.10;99.90;;;;;;5074203;28;19908;-90
2021/07/26 03:27:06;;;;;;;;;;;19.10;99.90;;;;;;5074266;28;19960;-89
2021/07/26 03:29:32;;;;;;;;;;;19.10;99.90;;;;;;5073674;28;20146;-89
2021/07/26 03:31:57;;;;;;;;;;;19.00;99.90;;;;;;5074107;28;19954;-89
2021/07/26 03:34:23;;;;;;;;;;;19.10;99.90;;;;;;5092295;28;19916;-89
2021/07/26 03:36:48;;;;;;;;;;;19.10;99.90;;;;;;5074099;28;19908;-89
2021/07/26 03:39:14;;;;;;;;;;;19.00;99.90;;;;;;5073492;28;19908;-89
2021/07/26 03:41:39;;;;;;;;;;;19.00;99.90;;;;;;5092170;28;20360;-89
2021/07/26 03:44:05;;;;;;;;;;;19.00;99.90;;;;;;5074105;28;19948;-89
2021/07/26 03:46:30;;;;;;;;;;;19.00;99.90;;;;;;5074161;28;19908;-89
2021/07/26 03:48:56;;;;;;;;;;;19.00;99.90;;;;;;5091649;28;19908;-89
2021/07/26 03:51:21;;;;;;;;;;;19.00;99.90;;;;;;5093766;28;19943;-89
2021/07/26 03:53:48;;;;;;;;;;;19.00;99.90;;;;;;5077707;28;19908;-89
2021/07/26 03:56:16;;;;;;;;;;;19.00;99.90;;;;;;5077808;28;20015;-89
2021/07/26 03:58:42;;;;;;;;;;;19.00;99.90;;;;;;5077662;28;19912;-90
2021/07/26 04:01:07;;;;;;;;;;;18.90;99.90;;;;;;5077003;28;19919;-90
2021/07/26 04:03:33;;;;;;;;;;;19.00;99.90;;;;;;5095854;28;19908;-89
2021/07/26 04:06:09;;;;;;;;;;;19.00;99.90;;;;;;5077564;28;20469;-89
2021/07/26 04:08:38;;;;;;;;;;;19.00;99.90;;;;;;5096217;28;19912;-89
2021/07/26 04:11:26;;;;;;;;;;;19.00;99.90;;;;;;5095223;28;19962;-89
2021/07/26 04:14:04;;;;;;;;;;;19.00;99.90;;;;;;5077340;28;19965;-89
2021/07/26 04:16:30;;;;;;;;;;;19.00;99.90;;;;;;5077428;28;20388;-89
2021/07/26 04:18:56;;;;;;;;;;;19.10;99.90;;;;;;5076674;28;19967;-90
2021/07/26 04:21:29;;;;;;;;;;;19.00;99.90;;;;;;5077381;28;19908;-89
2021/07/26 04:23:55;;;;;;;;;;;19.00;99.90;;;;;;5077180;28;19912;-89
2021/07/26 04:26:20;;;;;;;;;;;19.00;99.90;;;;;;5077189;28;20356;-89
2021/07/26 04:28:46;;;;;;;;;;;19.10;99.90;;;;;;5095265;28;19946;-89
2021/07/26 04:31:11;;;;;;;;;;;19.10;99.90;;;;;;5076601;28;20288;-90
2021/07/26 04:40:05;;;;;;;;;;;19.10;99.90;;;;;;5012205;28;20424;-89
2021/07/26 05:10:16;;;;;;;;;;;19.60;99.90;;;;;;4953572;29;20339;-90
2021/07/26 05:12:42;;;;;;;;;;;19.70;99.90;;;;;;4960403;28;19916;-90
2021/07/26 05:15:08;;;;;;;;;;;19.80;99.90;;;;;;5094386;28;19938;-90
2021/07/26 05:17:34;;;;;;;;;;;19.90;99.90;;;;;;5093740;23;19931;-82
2021/07/26 05:19:59;;;;;;;;;;;19.90;99.90;;;;;;5073715;28;20007;-82
2021/07/26 05:22:25;;;;;;;;;;;20.00;99.90;;;;;;5075469;28;19909;-82
2021/07/26 05:24:50;;;;;;;;;;;20.00;99.90;;;;;;5074083;28;20179;-82
2021/07/26 05:27:16;;;;;;;;;;;20.10;99.90;;;;;;5074417;28;19908;-82
2021/07/26 05:29:42;;;;;;;;;;;20.10;99.90;;;;;;5075048;28;19912;-82
2021/07/26 05:32:07;;;;;;;;;;;20.20;99.90;;;;;;5075442;28;20001;-82
2021/07/26 05:34:33;;;;;;;;;;;20.20;99.90;;;;;;5075520;28;20289;-82
2021/07/26 05:36:59;;;;;;;;;;;20.20;99.90;;;;;;5074236;28;20330;-82
2021/07/26 05:39:24;;;;;;;;;;;20.20;99.90;;;;;;5073571;28;19908;-82
2021/07/26 05:41:54;;;;;;;;;;;20.30;99.90;;;;;;5075372;28;19908;-82
2021/07/26 05:44:19;;;;;;;;;;;20.30;99.90;;;;;;5073934;28;19969;-82
2021/07/26 05:46:45;;;;;;;;;;;20.40;99.90;;;;;;5073946;28;19955;-81
2021/07/26 05:49:10;;;;;;;;;;;20.40;99.90;;;;;;5074337;28;20279;-82
2021/07/26 05:51:36;;;;;;;;;;;20.40;99.90;;;;;;5074214;28;19915;-82
2021/07/26 05:54:01;;;;;;;;;;;20.40;99.90;;;;;;5074956;28;19919;-82
2021/07/26 05:56:30;;;;;;;;;;;20.40;99.90;;;;;;5073889;28;19909;-82
2021/07/26 05:58:56;;;;;;;;;;;20.50;99.90;;;;;;5072943;28;19908;-82
2021/07/26 06:01:25;;;;;;;;;;;20.50;99.90;;;;;;5073601;28;19920;-82
2021/07/26 06:03:50;;;;;;;;;;;20.60;99.90;;;;;;5073643;28;19916;-82
2021/07/26 06:06:17;;;;;;;;;;;20.60;99.90;;;;;;5073135;28;19908;-82
2021/07/26 06:08:42;;;;;;;;;;;20.60;99.90;;;;;;5074757;28;19958;-82
2021/07/26 06:11:08;;;;;;;;;;;20.70;99.90;;;;;;5072508;28;19916;-82
2021/07/26 06:13:33;;;;;;;;;;;20.70;99.90;;;;;;5073802;28;19908;-82
2021/07/26 06:15:59;;;;;;;;;;;20.70;99.90;;;;;;5073025;28;19915;-82
2021/07/26 06:18:27;;;;;;;;;;;20.70;99.90;;;;;;5073587;28;19916;-82
2021/07/26 06:20:53;;;;;;;;;;;20.80;99.90;;;;;;5073956;28;19912;-82
2021/07/26 06:23:20;;;;;;;;;;;20.80;99.90;;;;;;5074920;28;20364;-82
2021/07/26 06:25:45;;;;;;;;;;;20.80;99.90;;;;;;5073621;28;19912;-81
2021/07/26 06:28:11;;;;;;;;;;;20.90;99.90;;;;;;5073582;28;19977;-82
2021/07/26 06:30:36;;;;;;;;;;;20.90;99.90;;;;;;5073391;28;20285;-82
2021/07/26 06:33:02;;;;;;;;;;;21.00;99.90;;;;;;5073353;28;19913;-82
2021/07/26 06:35:28;;;;;;;;;;;21.00;99.20;;;;;;5073446;28;20388;-82
2021/07/26 06:37:53;;;;;;;;;;;21.10;98.70;;;;;;5073711;28;19908;-82
2021/07/26 06:40:18;;;;;;;;;;;21.10;98.90;;;;;;5072678;28;20280;-81
2021/07/26 06:42:44;;;;;;;;;;;21.10;99.10;;;;;;5074639;28;19963;-82
2021/07/26 06:45:10;;;;;;;;;;;21.10;98.70;;;;;;5073181;28;19912;-82
2021/07/26 06:47:36;;;;;;;;;;;21.10;98.70;;;;;;5074437;28;19913;-82
2021/07/26 06:50:02;;;;;;;;;;;21.20;98.90;;;;;;5072410;28;20357;-82
2021/07/26 06:52:28;;;;;;;;;;;21.20;98.30;;;;;;5073136;28;19931;-82
2021/07/26 06:54:53;;;;;;;;;;;21.20;98.40;;;;;;5073058;28;19916;-83
2021/07/26 06:57:19;;;;;;;;;;;21.20;98.20;;;;;;5072843;28;19908;-82
2021/07/26 06:59:44;;;;;;;;;;;21.20;97.80;;;;;;5074017;28;19987;-82
2021/07/26 07:02:10;;;;;;;;;;;21.30;97.80;;;;;;5074398;28;20365;-82
2021/07/26 07:04:35;;;;;;;;;;;21.30;97.50;;;;;;5073995;28;19913;-82
2021/07/26 07:07:02;;;;;;;;;;;21.30;97.80;;;;;;5072652;28;19940;-82
2021/07/26 07:09:28;;;;;;;;;;;21.30;97.50;;;;;;5071687;28;19915;-82
2021/07/26 07:11:53;;;;;;;;;;;21.30;97.50;;;;;;5071995;28;20003;-82
2021/07/26 07:14:19;;;;;;;;;;;21.30;97.30;;;;;;5073500;28;19973;-82
2021/07/26 07:16:44;;;;;;;;;;;21.30;97.50;;;;;;5071989;28;20432;-82
2021/07/26 07:19:11;;;;;;;;;;;21.20;97.30;;;;;;5072566;28;20000;-81
2021/07/26 07:21:36;;;;;;;;;;;21.30;96.80;;;;;;5071937;28;19913;-82
2021/07/26 07:24:02;;;;;;;;;;;21.20;96.80;;;;;;5073499;28;20411;-82
2021/07/26 07:26:29;;;;;;;;;;;21.20;97.10;;;;;;5075683;28;19920;-81
2021/07/26 07:28:55;;;;;;;;;;;21.20;97.30;;;;;;5075987;28;20331;-82
2021/07/26 07:31:26;;;;;;;;;;;21.20;97.40;;;;;;5075982;28;20391;-82
2021/07/26 07:33:52;;;;;;;;;;;21.10;97.40;;;;;;5077275;28;20003;-82
2021/07/26 07:36:18;;;;;;;;;;;21.10;97.20;;;;;;5077787;28;19936;-82
2021/07/26 07:38:44;;;;;;;;;;;21.10;97.10;;;;;;5075897;28;20275;-82
2021/07/26 07:41:09;;;;;;;;;;;21.10;97.20;;;;;;5075226;28;19908;-82
2021/07/26 07:43:35;;;;;;;;;;;21.10;97.20;;;;;;5077084;28;19919;-82
2021/07/26 07:46:00;;;;;;;;;;;21.00;97.30;;;;;;5076991;28;19951;-82
2021/07/26 07:48:29;;;;;;;;;;;21.00;97.10;;;;;;5075914;28;19916;-81
2021/07/26 07:50:55;;;;;;;;;;;21.10;97.10;;;;;;5076405;28;20373;-81
2021/07/26 07:53:21;;;;;;;;;;;21.00;97.20;;;;;;5077061;28;19916;-81
2021/07/26 07:55:47;;;;;;;;;;;21.10;97.20;;;;;;5075610;28;19916;-82
2021/07/26 07:58:13;;;;;;;;;;;21.10;97.30;;;;;;5077120;28;19919;-82
2021/07/26 08:00:38;;;;;;;;;;;21.00;97.30;;;;;;5076586;28;20291;-81
2021/07/26 08:03:04;;;;;;;;;;;21.00;97.30;;;;;;5076638;28;20336;-82
2021/07/26 08:05:30;;;;;;;;;;;21.00;97.30;;;;;;5076742;28;19908;-82
2021/07/26 08:07:56;;;;;;;;;;;21.00;97.30;;;;;;5075137;28;19912;-81
2021/07/26 08:10:21;;;;;;;;;;;21.00;97.00;;;;;;5076109;28;19909;-82
2021/07/26 08:12:47;;;;;;;;;;;21.00;96.60;;;;;;5076556;28;19908;-82
2021/07/26 08:15:13;;;;;;;;;;;21.10;96.40;;;;;;5075428;28;19920;-81
2021/07/26 08:17:39;;;;;;;;;;;21.20;96.50;;;;;;5075185;28;19965;-81
2021/07/26 08:20:05;;;;;;;;;;;21.20;96.30;;;;;;5076257;28;19908;-82
2021/07/26 08:22:31;;;;;;;;;;;21.20;96.10;;;;;;5074834;28;19908;-82
2021/07/26 08:24:56;;;;;;;;;;;21.20;96.00;;;;;;5075166;28;20570;-82
2021/07/26 08:27:22;;;;;;;;;;;21.20;95.80;;;;;;5074785;28;20402;-82
2021/07/26 08:29:47;;;;;;;;;;;21.20;95.90;;;;;;5075916;28;20460;-82
2021/07/26 08:32:13;;;;;;;;;;;21.20;96.00;;;;;;5076719;28;19912;-82
2021/07/26 08:34:39;;;;;;;;;;;21.20;95.70;;;;;;5076268;28;19912;-82
2021/07/26 08:37:04;;;;;;;;;;;21.20;96.10;;;;;;5075822;28;20304;-82
2021/07/26 08:39:30;;;;;;;;;;;21.20;95.70;;;;;;5075609;28;19958;-82
2021/07/26 08:41:55;;;;;;;;;;;21.30;95.50;;;;;;5075922;28;19909;-82
2021/07/26 08:44:21;;;;;;;;;;;21.40;95.50;;;;;;5074829;28;20199;-82
2021/07/26 08:46:48;;;;;;;;;;;21.40;95.70;;;;;;5074876;28;19999;-82
2021/07/26 08:49:14;;;;;;;;;;;21.40;95.50;;;;;;5075238;28;19912;-82
2021/07/26 08:51:42;;;;;;;;;;;21.50;95.50;;;;;;5075658;28;19916;-82
2021/07/26 08:54:09;;;;;;;;;;;21.50;95.50;;;;;;5075507;28;20466;-82
2021/07/26 08:56:36;;;;;;;;;;;21.60;95.20;;;;;;5074572;28;19913;-82
2021/07/26 08:59:02;;;;;;;;;;;21.70;95.10;;;;;;5075317;28;19967;-82
2021/07/26 09:01:28;;;;;;;;;;;21.70;95.00;;;;;;5074594;28;19952;-82
2021/07/26 09:03:53;;;;;;;;;;;21.70;94.90;;;;;;5074645;28;19912;-82
2021/07/26 09:06:19;;;;;;;;;;;21.80;95.00;;;;;;5075480;28;19908;-82
2021/07/26 09:08:44;;;;;;;;;;;21.80;95.10;;;;;;5074358;28;20269;-82
2021/07/26 09:11:10;;;;;;;;;;;21.80;95.20;;;;;;5075712;28;19915;-82
2021/07/26 09:13:38;;;;;;;;;;;21.90;95.20;;;;;;5075634;28;19972;-82
2021/07/26 09:16:22;;;;;;;;;;;22.00;95.30;;;;;;5075251;28;19967;-82
2021/07/26 09:19:06;;;;;;;;;;;22.00;95.00;;;;;;5073135;28;19923;-82
2021/07/26 09:21:51;;;;;;;;;;;22.10;95.00;;;;;;5074079;28;19908;-82
2021/07/26 09:24:24;;;;;;;;;;;22.10;95.10;;;;;;5074534;28;19908;-82
2021/07/26 09:26:50;;;;;;;;;;;22.10;94.90;;;;;;5077041;28;19908;-82
2021/07/26 09:29:41;;;;;;;;;;;22.20;95.10;;;;;;5076830;28;19934;-82
2021/07/26 09:32:07;;;;;;;;;;;22.20;95.00;;;;;;5072668;28;19913;-82
2021/07/26 09:34:36;;;;;;;;;;;22.30;94.90;;;;;;5076512;28;19916;-82
2021/07/26 09:37:03;;;;;;;;;;;22.30;94.60;;;;;;5076744;28;19923;-82
2021/07/26 09:39:29;;;;;;;;;;;22.40;94.30;;;;;;5074652;28;19909;-82
2021/07/26 09:41:56;;;;;;;;;;;22.50;93.80;;;;;;5077575;28;19917;-82
2021/07/26 09:44:22;;;;;;;;;;;22.50;93.60;;;;;;5076164;28;19936;-83
2021/07/26 09:46:47;;;;;;;;;;;22.50;93.90;;;;;;5076775;28;20361;-82
2021/07/26 09:49:14;;;;;;;;;;;22.60;93.80;;;;;;5075757;28;19917;-83
2021/07/26 09:51:40;;;;;;;;;;;22.60;93.50;;;;;;5077127;28;19928;-82
2021/07/26 09:54:06;;;;;;;;;;;22.70;93.60;;;;;;5077418;28;19913;-82
2021/07/26 09:56:35;;;;;;;;;;;22.70;93.20;;;;;;5075565;28;20296;-83
2021/07/26 09:59:04;;;;;;;;;;;22.70;93.40;;;;;;5077108;28;19908;-83
2021/07/26 10:01:29;;;;;;;;;;;22.70;93.60;;;;;;5077137;28;19909;-82
2021/07/26 10:03:58;;;;;;;;;;;22.70;93.80;;;;;;5076440;28;19962;-82
2021/07/26 10:06:26;;;;;;;;;;;22.80;93.50;;;;;;5077122;28;19954;-82
2021/07/26 10:08:53;;;;;;;;;;;22.80;93.50;;;;;;5075032;28;20213;-82
2021/07/26 10:11:19;;;;;;;;;;;22.90;93.50;;;;;;5076653;28;19939;-83
2021/07/26 10:13:46;;;;;;;;;;;22.90;93.50;;;;;;5076604;28;20300;-82
2021/07/26 10:16:12;;;;;;;;;;;22.90;93.30;;;;;;5077027;28;19915;-82
2021/07/26 10:18:37;;;;;;;;;;;23.00;93.00;;;;;;5074989;28;19928;-82
2021/07/26 10:21:04;;;;;;;;;;;23.10;92.90;;;;;;5077110;28;19995;-82
2021/07/26 10:23:34;;;;;;;;;;;23.00;92.80;;;;;;5076645;28;19908;-82
2021/07/26 10:26:08;;;;;;;;;;;23.00;93.10;;;;;;5076851;28;19987;-83
2021/07/26 10:28:33;;;;;;;;;;;22.90;92.80;;;;;;5076164;28;19975;-82
2021/07/26 10:30:59;;;;;;;;;;;22.90;93.10;;;;;;5075265;28;20003;-83
2021/07/26 10:33:25;;;;;;;;;;;22.90;93.20;;;;;;5077388;28;19909;-82
2021/07/26 10:35:54;;;;;;;;;;;22.80;93.20;;;;;;5077248;28;19912;-82
2021/07/26 10:38:38;;;;;;;;;;;22.70;93.10;;;;;;5076042;28;19909;-82
2021/07/26 10:41:04;;;;;;;;;;;22.70;93.00;;;;;;5074559;28;19908;-82
2021/07/26 10:43:48;;;;;;;;;;;22.60;92.90;;;;;;5076968;28;19908;-83
2021/07/26 10:46:14;;;;;;;;;;;22.60;92.90;;;;;;5077625;28;19915;-82
2021/07/26 10:48:48;;;;;;;;;;;22.70;92.70;;;;;;5075256;28;19908;-82
2021/07/26 10:51:32;;;;;;;;;;;22.70;92.90;;;;;;5074979;28;20340;-82
2021/07/26 10:53:58;;;;;;;;;;;22.70;92.90;;;;;;5076710;28;19909;-82
2021/07/26 10:56:23;;;;;;;;;;;22.70;93.00;;;;;;5075330;28;20249;-82
2021/07/26 10:59:00;;;;;;;;;;;22.70;92.80;;;;;;5074758;28;19915;-81
2021/07/26 11:01:26;;;;;;;;;;;22.90;92.10;;;;;;5073939;28;19920;-82
2021/07/26 11:03:57;;;;;;;;;;;22.90;91.50;;;;;;5075301;28;19912;-82
2021/07/26 11:06:35;;;;;;;;;;;22.90;91.60;;;;;;5077635;28;19912;-82
2021/07/26 11:09:20;;;;;;;;;;;22.90;91.50;;;;;;5076089;28;19939;-82
2021/07/26 11:11:46;;;;;;;;;;;23.00;92.00;;;;;;5075415;28;19909;-82
2021/07/26 11:14:12;;;;;;;;;;;23.10;91.90;;;;;;5077056;28;19999;-82
2021/07/26 11:16:58;;;;;;;;;;;23.20;92.00;;;;;;5079523;28;19909;-82
2021/07/26 11:19:33;;;;;;;;;;;23.30;91.90;;;;;;5110253;23;19928;-89
2021/07/26 11:21:59;;;;;;;;;;;23.30;91.10;;;;;;5074464;28;20003;-88
2021/07/26 11:24:43;;;;;;;;;;;23.40;90.80;;;;;;5074465;28;20339;-88
2021/07/26 11:27:16;;;;;;;;;;;23.40;91.00;;;;;;5074425;28;20395;-89
2021/07/26 11:29:43;;;;;;;;;;;23.40;90.80;;;;;;5053503;28;19915;-89
2021/07/26 11:32:08;;;;;;;;;;;23.40;90.60;;;;;;5054196;28;19939;-89
2021/07/26 11:34:34;;;;;;;;;;;23.50;89.50;;;;;;5054222;28;19913;-89
2021/07/26 11:37:15;;;;;;;;;;;23.50;89.20;;;;;;5054338;28;19909;-88
2021/07/26 11:39:48;;;;;;;;;;;23.50;90.00;;;;;;5053840;28;20344;-88
2021/07/26 11:42:16;;;;;;;;;;;23.60;90.00;;;;;;5055209;28;19958;-89
2021/07/26 11:44:42;;;;;;;;;;;23.50;90.00;;;;;;5055055;28;19908;-88
2021/07/26 11:47:08;;;;;;;;;;;23.60;89.90;;;;;;5072334;28;19953;-90
2021/07/26 11:49:33;;;;;;;;;;;23.60;89.50;;;;;;5053448;28;19908;-88
2021/07/26 11:52:07;;;;;;;;;;;23.70;89.90;;;;;;5053969;28;20307;-89
2021/07/26 11:54:32;;;;;;;;;;;23.70;89.90;;;;;;5053958;28;19912;-89
2021/07/26 11:57:08;;;;;;;;;;;23.80;89.00;;;;;;5056387;28;20182;-89
2021/07/26 11:59:37;;;;;;;;;;;23.80;88.90;;;;;;5060934;28;20003;-88
2021/07/26 12:02:13;;;;;;;;;;;23.80;89.10;;;;;;5058545;28;19909;-89
2021/07/26 12:04:39;;;;;;;;;;;23.90;87.00;;;;;;5053946;28;19913;-89
2021/07/26 12:07:05;;;;;;;;;;;24.00;87.40;;;;;;5054100;28;19908;-89
2021/07/26 12:09:31;;;;;;;;;;;24.00;86.50;;;;;;5053215;28;19909;-89
2021/07/26 12:12:13;;;;;;;;;;;24.10;85.80;;;;;;5055267;28;19908;-88
2021/07/26 12:14:39;;;;;;;;;;;24.20;85.50;;;;;;5075501;28;20340;-88
2021/07/26 12:17:06;;;;;;;;;;;24.30;84.30;;;;;;5075212;28;19962;-88
2021/07/26 12:19:35;;;;;;;;;;;24.20;85.00;;;;;;5074779;28;19939;-88
2021/07/26 12:22:13;;;;;;;;;;;24.20;84.80;;;;;;5075890;28;19908;-90
2021/07/26 12:25:00;;;;;;;;;;;24.30;83.10;;;;;;5057532;28;19920;-89
2021/07/26 12:27:30;;;;;;;;;;;24.20;83.40;;;;;;5057654;28;19908;-88
2021/07/26 12:29:57;;;;;;;;;;;24.30;83.00;;;;;;5056827;28;20005;-89
2021/07/26 12:32:23;;;;;;;;;;;24.30;82.30;;;;;;5056982;28;19909;-89
2021/07/26 12:35:07;;;;;;;;;;;24.30;82.70;;;;;;5057118;28;20057;-89
2021/07/26 12:37:32;;;;;;;;;;;24.30;82.90;;;;;;5057003;28;19916;-89
2021/07/26 12:40:11;;;;;;;;;;;24.30;82.40;;;;;;5056444;28;19912;-88
2021/07/26 12:42:37;;;;;;;;;;;24.30;82.60;;;;;;5057050;28;20130;-89
2021/07/26 12:45:24;;;;;;;;;;;24.30;82.80;;;;;;5074721;28;19953;-88
2021/07/26 12:47:50;;;;;;;;;;;24.30;82.30;;;;;;5056856;28;20360;-89
2021/07/26 12:50:16;;;;;;;;;;;24.40;82.70;;;;;;5056283;28;19916;-89
2021/07/26 12:52:42;;;;;;;;;;;24.40;81.20;;;;;;5056652;28;19915;-89
2021/07/26 12:55:07;;;;;;;;;;;24.40;80.90;;;;;;5056776;28;19912;-88
2021/07/26 12:57:33;;;;;;;;;;;24.40;81.20;;;;;;5056469;28;19959;-89
2021/07/26 12:59:58;;;;;;;;;;;24.50;80.80;;;;;;5056111;28;19919;-89
2021/07/26 13:02:24;;;;;;;;;;;24.60;80.90;;;;;;5056600;28;19908;-89
2021/07/26 13:04:49;;;;;;;;;;;24.60;81.10;;;;;;5074515;28;20384;-88
2021/07/26 13:07:17;;;;;;;;;;;24.70;80.10;;;;;;5056760;28;19908;-88
2021/07/26 13:09:42;;;;;;;;;;;24.70;80.40;;;;;;5074021;28;20391;-89
2021/07/26 13:12:08;;;;;;;;;;;24.70;80.10;;;;;;5075319;28;19908;-89
2021/07/26 13:14:33;;;;;;;;;;;24.60;80.50;;;;;;5056472;28;19912;-89
2021/07/26 13:16:59;;;;;;;;;;;24.50;81.20;;;;;;5074268;28;19916;-89
2021/07/26 13:19:24;;;;;;;;;;;24.50;82.10;;;;;;5055861;28;19917;-88
2021/07/26 13:21:51;;;;;;;;;;;24.40;82.10;;;;;;5074262;28;19908;-89
2021/07/26 13:24:16;;;;;;;;;;;24.40;82.20;;;;;;5056327;28;19944;-89
2021/07/26 13:26:42;;;;;;;;;;;24.40;82.50;;;;;;5074449;28;19908;-89
2021/07/26 13:29:08;;;;;;;;;;;24.40;83.30;;;;;;5055723;28;20419;-89
2021/07/26 13:31:35;;;;;;;;;;;24.40;83.20;;;;;;5056253;28;19909;-89
2021/07/26 13:34:00;;;;;;;;;;;24.40;83.20;;;;;;5056052;28;19909;-88
2021/07/26 13:36:26;;;;;;;;;;;24.50;83.00;;;;;;5055956;28;20217;-89
2021/07/26 13:38:51;;;;;;;;;;;24.50;83.00;;;;;;5055517;28;20347;-89
2021/07/26 13:41:17;;;;;;;;;;;24.60;83.50;;;;;;5055516;28;19908;-89
2021/07/26 13:43:42;;;;;;;;;;;24.60;82.60;;;;;;5073783;28;19914;-88
2021/07/26 13:46:08;;;;;;;;;;;24.60;82.70;;;;;;5055995;28;20331;-89
2021/07/26 13:48:34;;;;;;;;;;;24.50;82.70;;;;;;5055701;28;19909;-88
2021/07/26 13:51:00;;;;;;;;;;;24.50;83.10;;;;;;5055375;28;20343;-89
2021/07/26 13:53:26;;;;;;;;;;;24.40;83.20;;;;;;5055717;28;19974;-89
2021/07/26 13:55:51;;;;;;;;;;;24.40;83.10;;;;;;5055437;28;20353;-89
2021/07/26 13:58:17;;;;;;;;;;;24.50;83.20;;;;;;5073357;28;19908;-89
2021/07/26 14:00:42;;;;;;;;;;;24.40;83.20;;;;;;5055245;28;19915;-89
2021/07/26 14:03:09;;;;;;;;;;;24.40;83.20;;;;;;5055535;28;19912;-89
2021/07/26 14:05:35;;;;;;;;;;;24.40;83.50;;;;;;5055508;28;20049;-88
2021/07/26 14:08:00;;;;;;;;;;;24.30;85.00;;;;;;5055317;28;19969;-89
2021/07/26 14:10:26;;;;;;;;;;;24.40;86.60;;;;;;5054851;28;19954;-89
2021/07/26 14:12:51;;;;;;;;;;;24.40;86.60;;;;;;5055180;28;19909;-89
2021/07/26 14:15:18;;;;;;;;;;;24.50;86.80;;;;;;5055301;28;20380;-89
2021/07/26 14:17:43;;;;;;;;;;;24.40;87.00;;;;;;5054921;28;19934;-89
2021/07/26 14:20:09;;;;;;;;;;;24.40;87.60;;;;;;5072720;28;19913;-89
2021/07/26 14:22:35;;;;;;;;;;;24.30;88.00;;;;;;5072838;28;19917;-88
2021/07/26 14:25:00;;;;;;;;;;;24.30;88.70;;;;;;5055011;28;19930;-89
2021/07/26 14:27:26;;;;;;;;;;;24.30;89.90;;;;;;5055065;28;19909;-90
2021/07/26 14:29:53;;;;;;;;;;;24.30;90.00;;;;;;5054398;28;19905;-88
2021/07/26 14:32:19;;;;;;;;;;;24.40;89.80;;;;;;5054951;28;19952;-89
2021/07/26 14:34:44;;;;;;;;;;;24.80;85.20;;;;;;5054631;28;19997;-89
2021/07/26 14:37:10;;;;;;;;;;;25.30;83.50;;;;;;5054884;28;20031;-89
2021/07/26 14:39:36;;;;;;;;;;;26.00;82.10;;;;;;5072152;28;20456;-89
2021/07/26 14:42:01;;;;;;;;;;;26.60;79.40;;;;;;5054771;28;19942;-89
2021/07/26 14:44:27;;;;;;;;;;;26.90;76.90;;;;;;5054926;28;19908;-89
2021/07/26 14:46:53;;;;;;;;;;;27.20;73.70;;;;;;5072806;28;19913;-89
2021/07/26 14:49:18;;;;;;;;;;;27.50;72.10;;;;;;5054123;28;19916;-89
2021/07/26 14:51:44;;;;;;;;;;;27.80;71.90;;;;;;5054799;28;19947;-89